createdAt,value
2023-02-16T00:01:22.382Z,100.00
2023-02-16T00:03:53.200Z,100.00
2023-02-16T00:06:22.578Z,100.00
2023-02-16T00:08:57.176Z,100.00
2023-02-16T00:11:49.790Z,100.00
2023-02-16T00:14:26.177Z,100.00
2023-02-16T00:16:56.227Z,100.00
2023-02-16T00:19:28.013Z,100.00
2023-02-16T00:21:59.760Z,100.00
2023-02-16T00:24:30.884Z,100.00
2023-02-16T00:27:00.782Z,100.00
2023-02-16T00:29:33.435Z,100.00
2023-02-16T00:32:06.011Z,100.00
2023-02-16T00:34:37.175Z,100.00
2023-02-16T00:37:08.295Z,100.00
2023-02-16T00:39:38.730Z,100.00
2023-02-16T00:42:14.798Z,100.00
2023-02-16T00:44:48.028Z,100.00
2023-02-16T00:47:21.760Z,100.00
2023-02-16T00:49:53.319Z,100.00
2023-02-16T00:52:35.605Z,100.00
2023-02-16T00:55:09.576Z,100.00
2023-02-16T00:57:44.049Z,100.00
2023-02-16T01:00:22.287Z,100.00
2023-02-16T01:02:58.586Z,100.00
2023-02-16T01:05:28.793Z,100.00
2023-02-16T01:08:12.473Z,100.00
2023-02-16T01:10:59.699Z,100.00
2023-02-16T01:13:31.032Z,100.00
2023-02-16T01:16:01.653Z,100.00
2023-02-16T01:18:32.159Z,100.00
2023-02-16T01:21:01.533Z,100.00
2023-02-16T01:23:30.715Z,100.00
2023-02-16T01:25:59.833Z,100.00
2023-02-16T01:28:28.944Z,100.00
2023-02-16T01:30:58.091Z,100.00
2023-02-16T01:33:28.624Z,100.00
2023-02-16T01:35:58.897Z,100.00
2023-02-16T01:38:30.284Z,100.00
2023-02-16T01:41:10.586Z,100.00
2023-02-16T01:43:47.988Z,100.00
2023-02-16T01:46:25.443Z,100.00
2023-02-16T01:48:55.983Z,100.00
2023-02-16T01:51:30.464Z,100.00
2023-02-16T01:54:08.728Z,100.00
2023-02-16T01:56:44.530Z,100.00
2023-02-16T01:59:28.718Z,100.00
2023-02-16T02:01:59.363Z,100.00
2023-02-16T02:04:59.304Z,100.00
2023-02-16T02:07:36.207Z,100.00
2023-02-16T02:10:11.317Z,100.00
2023-02-16T02:12:50.932Z,100.00
2023-02-16T02:15:27.926Z,100.00
2023-02-16T02:17:57.089Z,100.00
2023-02-16T02:21:00.648Z,100.00
2023-02-16T02:23:50.200Z,100.00
2023-02-16T02:27:08.698Z,100.00
2023-02-16T02:30:09.940Z,100.00
2023-02-16T02:33:21.525Z,100.00
2023-02-16T02:35:59.643Z,100.00
2023-02-16T02:38:38.225Z,100.00
2023-02-16T02:41:20.221Z,100.00
2023-02-16T02:43:58.367Z,100.00
2023-02-16T02:46:32.435Z,100.00
2023-02-16T02:49:01.496Z,100.00
2023-02-16T02:51:30.819Z,100.00
2023-02-16T02:54:27.412Z,100.00
2023-02-16T02:57:24.356Z,100.00
2023-02-16T03:00:20.159Z,100.00
2023-02-16T03:02:53.220Z,100.00
2023-02-16T03:05:24.627Z,100.00
2023-02-16T03:08:06.384Z,100.00
2023-02-16T03:10:56.301Z,100.00
2023-02-16T03:13:33.711Z,100.00
2023-02-16T03:16:11.370Z,100.00
2023-02-16T03:19:00.896Z,100.00
2023-02-16T03:21:47.718Z,100.00
2023-02-16T03:24:41.156Z,100.00
2023-02-16T03:27:28.575Z,100.00
2023-02-16T03:29:59.090Z,100.00
2023-02-16T03:32:29.529Z,100.00
2023-02-16T03:34:58.708Z,100.00
2023-02-16T03:37:27.931Z,100.00
2023-02-16T03:40:15.778Z,100.00
2023-02-16T03:42:51.038Z,100.00
2023-02-16T03:45:22.349Z,100.00
2023-02-16T03:47:52.762Z,100.00
2023-02-16T03:50:22.062Z,100.00
2023-02-16T03:52:51.079Z,100.00
2023-02-16T03:55:20.465Z,100.00
2023-02-16T03:57:49.462Z,100.00
2023-02-16T04:00:19.599Z,100.00
2023-02-16T04:02:49.627Z,100.00
2023-02-16T04:05:20.207Z,100.00
2023-02-16T04:07:49.264Z,100.00
2023-02-16T04:10:18.602Z,100.00
2023-02-16T04:12:47.315Z,100.00
2023-02-16T04:15:20.873Z,100.00
2023-02-16T04:17:50.473Z,100.00
2023-02-16T04:20:23.900Z,100.00
2023-02-16T04:22:53.654Z,100.00
2023-02-16T04:25:23.143Z,100.00
2023-02-16T04:27:53.270Z,100.00
2023-02-16T04:30:25.203Z,100.00
2023-02-16T04:32:54.732Z,100.00
2023-02-16T04:35:25.354Z,100.00
2023-02-16T04:37:54.442Z,100.00
2023-02-16T04:40:24.192Z,100.00
2023-02-16T04:42:53.194Z,100.00
2023-02-16T04:45:22.684Z,100.00
2023-02-16T04:47:52.378Z,100.00
2023-02-16T04:50:22.084Z,100.00
2023-02-16T04:52:52.435Z,100.00
2023-02-16T04:55:21.555Z,100.00
2023-02-16T04:57:50.532Z,100.00
2023-02-16T05:00:21.364Z,100.00
2023-02-16T05:02:50.406Z,100.00
2023-02-16T05:05:19.684Z,100.00
2023-02-16T05:07:48.663Z,100.00
2023-02-16T05:10:19.199Z,100.00
2023-02-16T05:13:05.707Z,100.00
2023-02-16T05:15:34.752Z,100.00
2023-02-16T05:18:03.770Z,100.00
2023-02-16T05:20:46.573Z,100.00
2023-02-16T05:23:16.331Z,100.00
2023-02-16T05:25:46.722Z,100.00
2023-02-16T05:28:15.815Z,100.00
2023-02-16T05:30:44.922Z,100.00
2023-02-16T05:33:13.911Z,100.00
2023-02-16T05:35:42.923Z,100.00
2023-02-16T05:38:11.924Z,100.00
2023-02-16T05:40:40.948Z,100.00
2023-02-16T05:43:11.290Z,100.00
2023-02-16T05:45:40.511Z,100.00
2023-02-16T05:48:09.445Z,100.00
2023-02-16T05:50:38.488Z,100.00
2023-02-16T05:53:07.487Z,100.00
2023-02-16T05:55:36.549Z,100.00
2023-02-16T05:58:05.572Z,100.00
2023-02-16T06:00:36.709Z,100.00
2023-02-16T06:03:05.873Z,100.00
2023-02-16T06:05:35.297Z,100.00
2023-02-16T06:08:04.333Z,100.00
2023-02-16T06:10:33.361Z,100.00
2023-02-16T06:13:02.349Z,100.00
2023-02-16T06:15:31.409Z,100.00
2023-02-16T06:18:03.279Z,100.00
2023-02-16T06:20:32.293Z,100.00
2023-02-16T06:23:01.363Z,100.00
2023-02-16T06:25:30.615Z,100.00
2023-02-16T06:27:59.699Z,100.00
2023-02-16T06:30:29.220Z,100.00
2023-02-16T06:32:58.291Z,100.00
2023-02-16T06:35:28.747Z,100.00
2023-02-16T06:37:59.164Z,100.00
2023-02-16T06:40:28.427Z,100.00
2023-02-16T06:42:57.577Z,100.00
2023-02-16T06:45:26.597Z,100.00
2023-02-16T06:47:55.557Z,100.00
2023-02-16T06:50:24.580Z,100.00
2023-02-16T06:52:54.939Z,100.00
2023-02-16T06:55:23.969Z,100.00
2023-02-16T06:57:52.941Z,100.00
2023-02-16T07:00:22.831Z,100.00
2023-02-16T07:02:51.851Z,100.00
2023-02-16T07:05:20.914Z,100.00
2023-02-16T07:07:49.869Z,100.00
2023-02-16T07:10:20.729Z,100.00
2023-02-16T07:12:50.018Z,100.00
2023-02-16T07:15:19.278Z,100.00
2023-02-16T07:17:48.291Z,100.00
2023-02-16T07:20:18.515Z,100.00
2023-02-16T07:22:47.496Z,100.00
2023-02-16T07:25:16.615Z,100.00
2023-02-16T07:27:47.005Z,100.00
2023-02-16T07:30:17.115Z,100.00
2023-02-16T07:32:46.304Z,100.00
2023-02-16T07:35:15.669Z,100.00
2023-02-16T07:37:44.732Z,100.00
2023-02-16T07:40:14.547Z,100.00
2023-02-16T07:42:43.536Z,100.00
2023-02-16T07:45:13.922Z,100.00
2023-02-16T07:47:42.963Z,100.00
2023-02-16T07:50:12.761Z,100.00
2023-02-16T07:52:41.768Z,100.00
2023-02-16T07:55:12.061Z,100.00
2023-02-16T07:57:41.566Z,100.00
2023-02-16T08:00:13.426Z,100.00
2023-02-16T08:02:42.761Z,100.00
2023-02-16T08:05:11.861Z,100.00
2023-02-16T08:07:41.871Z,100.00
2023-02-16T08:10:13.035Z,100.00
2023-02-16T08:12:42.122Z,100.00
2023-02-16T08:15:13.619Z,100.00
2023-02-16T08:17:43.546Z,100.00
2023-02-16T08:20:13.737Z,100.00
2023-02-16T08:22:43.682Z,100.00
2023-02-16T08:25:15.963Z,100.00
2023-02-16T08:27:45.016Z,100.00
2023-02-16T08:30:18.288Z,100.00
2023-02-16T08:32:50.877Z,100.00
2023-02-16T08:35:20.398Z,100.00
2023-02-16T08:37:50.759Z,100.00
2023-02-16T08:40:24.368Z,100.00
2023-02-16T08:42:53.536Z,100.00
2023-02-16T08:45:23.942Z,100.00
2023-02-16T08:47:53.284Z,100.00
2023-02-16T08:50:22.594Z,100.00
2023-02-16T08:52:51.570Z,100.00
2023-02-16T08:55:20.551Z,100.00
2023-02-16T08:57:49.534Z,100.00
2023-02-16T09:00:39.044Z,100.00
2023-02-16T09:03:09.491Z,100.00
2023-02-16T09:05:38.935Z,100.00
2023-02-16T09:08:07.936Z,100.00
2023-02-16T09:10:37.130Z,100.00
2023-02-16T09:13:06.300Z,100.00
2023-02-16T09:15:36.976Z,100.00
2023-02-16T09:18:09.172Z,100.00
2023-02-16T09:20:41.750Z,100.00
2023-02-16T09:23:12.451Z,100.00
2023-02-16T09:25:42.568Z,100.00
2023-02-16T09:28:11.922Z,100.00
2023-02-16T09:30:41.248Z,100.00
2023-02-16T09:33:10.235Z,100.00
2023-02-16T09:35:41.706Z,100.00
2023-02-16T09:38:10.891Z,100.00
2023-02-16T09:40:39.960Z,100.00
2023-02-16T09:43:31.868Z,100.00
2023-02-16T09:46:04.015Z,100.00
2023-02-16T09:48:38.774Z,100.00
2023-02-16T09:51:12.385Z,100.00
2023-02-16T09:53:45.184Z,100.00
2023-02-16T09:56:23.693Z,100.00
2023-02-16T09:58:58.806Z,100.00
2023-02-16T10:01:36.401Z,100.00
2023-02-16T10:04:31.862Z,100.00
2023-02-16T10:07:18.309Z,100.00
2023-02-16T10:09:53.574Z,100.00
2023-02-16T10:12:28.299Z,100.00
2023-02-16T10:15:07.635Z,100.00
2023-02-16T10:17:46.939Z,99.88
2023-02-16T10:20:20.683Z,100.00
2023-02-16T10:22:56.814Z,99.00
2023-02-16T10:25:38.332Z,100.00
2023-02-16T10:28:17.718Z,100.00
2023-02-16T10:30:54.904Z,98.90
2023-02-16T10:33:41.297Z,97.06
2023-02-16T10:36:23.380Z,98.42
2023-02-16T10:39:03.671Z,98.35
2023-02-16T10:41:38.137Z,95.00
2023-02-16T10:44:16.736Z,95.10
2023-02-16T10:46:53.374Z,96.63
2023-02-16T10:49:22.773Z,95.10
2023-02-16T10:51:53.165Z,93.29
2023-02-16T10:54:28.027Z,90.86
2023-02-16T10:57:01.175Z,86.64
2023-02-16T10:59:38.657Z,91.03
2023-02-16T11:02:19.559Z,89.99
2023-02-16T11:04:52.558Z,88.67
2023-02-16T11:07:24.140Z,85.71
2023-02-16T11:09:57.377Z,82.68
2023-02-16T11:12:32.505Z,83.51
2023-02-16T11:15:06.350Z,78.42
2023-02-16T11:17:53.682Z,82.17
2023-02-16T11:20:32.683Z,80.81
2023-02-16T11:23:22.663Z,78.91
2023-02-16T11:26:03.088Z,78.62
2023-02-16T11:28:35.991Z,76.57
2023-02-16T11:31:19.987Z,76.88
2023-02-16T11:34:00.293Z,76.43
2023-02-16T11:36:36.627Z,73.95
2023-02-16T11:39:11.096Z,72.54
2023-02-16T11:41:47.209Z,72.34
2023-02-16T11:44:28.697Z,70.60
2023-02-16T11:46:59.151Z,68.41
2023-02-16T11:49:35.359Z,67.54
2023-02-16T11:52:25.172Z,66.74
2023-02-16T11:54:58.584Z,63.79
2023-02-16T11:57:33.793Z,66.81
2023-02-16T12:00:17.533Z,66.46
2023-02-16T12:03:33.396Z,63.88
2023-02-16T12:06:20.946Z,61.80
2023-02-16T12:09:08.432Z,58.92
2023-02-16T12:11:50.933Z,56.64
2023-02-16T12:14:42.384Z,58.44
2023-02-16T12:17:27.899Z,57.97
2023-02-16T12:20:06.976Z,59.46
2023-02-16T12:22:45.790Z,59.06
2023-02-16T12:25:27.505Z,58.36
2023-02-16T12:28:05.160Z,57.43
2023-02-16T12:30:52.739Z,55.71
2023-02-16T12:33:41.876Z,56.26
2023-02-16T12:36:44.590Z,55.12
2023-02-16T12:39:23.430Z,54.03
2023-02-16T12:42:10.225Z,52.85
2023-02-16T12:44:46.064Z,52.58
2023-02-16T12:47:22.687Z,51.27
2023-02-16T12:49:55.086Z,50.38
2023-02-16T12:52:38.752Z,51.10
2023-02-16T12:55:22.423Z,48.51
2023-02-16T12:58:03.022Z,47.91
2023-02-16T13:00:43.781Z,49.91
2023-02-16T13:03:33.406Z,49.01
2023-02-16T13:06:15.704Z,46.94
2023-02-16T13:08:52.547Z,43.48
2023-02-16T13:11:25.740Z,40.30
2023-02-16T13:14:02.025Z,41.83
2023-02-16T13:16:43.677Z,42.57
2023-02-16T13:19:16.532Z,42.73
2023-02-16T13:22:27.727Z,42.15
2023-02-16T13:25:40.439Z,42.52
2023-02-16T13:28:31.575Z,40.16
2023-02-16T13:31:17.203Z,37.38
2023-02-16T13:34:09.656Z,40.35
2023-02-16T13:37:25.117Z,41.54
2023-02-16T13:40:51.780Z,38.68
2023-02-16T13:43:35.155Z,37.45
2023-02-16T13:46:11.636Z,36.76
2023-02-16T13:48:48.974Z,36.32
2023-02-16T13:51:20.783Z,33.96
2023-02-16T13:53:57.627Z,32.50
2023-02-16T13:56:38.618Z,28.86
2023-02-16T14:00:00.921Z,27.26
2023-02-16T14:02:59.839Z,28.41
2023-02-16T14:05:39.758Z,30.13
2023-02-16T14:08:24.912Z,31.62
2023-02-16T14:11:05.411Z,30.84
2023-02-16T14:13:49.627Z,29.32
2023-02-16T14:16:33.548Z,27.41
2023-02-16T14:19:17.868Z,27.02
2023-02-16T14:21:49.179Z,27.05
2023-02-16T14:24:33.299Z,26.24
2023-02-16T14:27:07.773Z,25.03
2023-02-16T14:29:41.962Z,23.97
2023-02-16T14:32:26.373Z,23.08
2023-02-16T14:34:58.828Z,21.78
2023-02-16T14:37:40.572Z,21.01
2023-02-16T14:40:40.344Z,19.51
2023-02-16T14:43:26.418Z,19.45
2023-02-16T14:46:20.199Z,20.15
2023-02-16T14:50:04.084Z,21.67
2023-02-16T14:53:09.724Z,24.82
2023-02-16T14:56:13.697Z,26.92
2023-02-16T14:58:56.768Z,27.02
2023-02-16T15:01:28.193Z,25.07
2023-02-16T15:03:58.502Z,22.96
2023-02-16T15:06:37.229Z,22.34
2023-02-16T15:09:15.750Z,24.74
2023-02-16T15:12:09.117Z,26.92
2023-02-16T15:14:45.245Z,30.29
2023-02-16T15:17:27.427Z,32.25
2023-02-16T15:20:04.666Z,34.70
2023-02-16T15:22:33.704Z,36.82
2023-02-16T15:25:05.487Z,39.15
2023-02-16T15:27:35.016Z,40.93
2023-02-16T15:30:24.137Z,42.74
2023-02-16T15:32:57.469Z,44.84
2023-02-16T15:35:35.964Z,46.17
2023-02-16T15:38:22.318Z,46.80
2023-02-16T15:40:55.106Z,48.30
2023-02-16T15:43:32.385Z,48.66
2023-02-16T15:46:05.950Z,49.83
2023-02-16T15:48:39.105Z,51.36
2023-02-16T15:51:15.604Z,52.03
2023-02-16T15:53:51.673Z,53.67
2023-02-16T15:56:39.578Z,54.35
2023-02-16T15:59:27.677Z,56.33
2023-02-16T16:02:06.172Z,58.18
2023-02-16T16:04:41.063Z,60.18
2023-02-16T16:07:17.649Z,61.28
2023-02-16T16:09:48.614Z,62.49
2023-02-16T16:12:21.975Z,64.00
2023-02-16T16:14:57.077Z,66.27
2023-02-16T16:17:30.685Z,68.81
2023-02-16T16:20:19.061Z,71.84
2023-02-16T16:22:56.754Z,73.31
2023-02-16T16:25:49.015Z,75.96
2023-02-16T16:28:38.315Z,77.83
2023-02-16T16:31:11.891Z,78.31
2023-02-16T16:33:57.936Z,79.28
2023-02-16T16:36:34.288Z,82.31
2023-02-16T16:39:28.015Z,82.16
2023-02-16T16:42:24.290Z,83.89
2023-02-16T16:45:05.522Z,87.74
2023-02-16T16:47:40.239Z,89.98
2023-02-16T16:50:33.677Z,89.50
2023-02-16T16:53:03.332Z,90.85
2023-02-16T16:55:35.373Z,91.07
2023-02-16T16:58:08.054Z,91.38
2023-02-16T17:00:41.935Z,91.86
2023-02-16T17:03:16.857Z,93.73
2023-02-16T17:05:47.485Z,95.13
2023-02-16T17:08:16.500Z,96.06
2023-02-16T17:10:45.519Z,96.05
2023-02-16T17:13:17.533Z,96.36
2023-02-16T17:15:52.289Z,97.39
2023-02-16T17:18:23.222Z,98.40
2023-02-16T17:20:53.845Z,98.26
2023-02-16T17:23:23.850Z,100.00
2023-02-16T17:25:53.104Z,100.00
2023-02-16T17:28:22.934Z,100.00
2023-02-16T17:30:52.144Z,100.00
2023-02-16T17:33:21.112Z,100.00
2023-02-16T17:35:50.196Z,100.00
2023-02-16T17:38:23.923Z,100.00
2023-02-16T17:40:55.888Z,100.00
2023-02-16T17:43:26.616Z,100.00
2023-02-16T17:45:59.627Z,100.00
2023-02-16T17:48:31.019Z,100.00
2023-02-16T17:51:00.624Z,100.00
2023-02-16T17:53:30.928Z,100.00
2023-02-16T17:56:00.027Z,100.00
2023-02-16T17:58:28.979Z,100.00
2023-02-16T18:00:58.042Z,100.00
2023-02-16T18:03:27.032Z,100.00
2023-02-16T18:05:56.734Z,100.00
2023-02-16T18:08:26.121Z,100.00
2023-02-16T18:11:02.147Z,100.00
2023-02-16T18:13:32.287Z,100.00
2023-02-16T18:16:03.814Z,100.00
2023-02-16T18:18:34.892Z,100.00
2023-02-16T18:21:04.407Z,100.00
2023-02-16T18:23:33.965Z,100.00
2023-02-16T18:26:05.469Z,100.00
2023-02-16T18:28:36.422Z,100.00
2023-02-16T18:31:08.127Z,100.00
2023-02-16T18:33:37.326Z,100.00
2023-02-16T18:36:07.533Z,100.00
2023-02-16T18:38:36.874Z,100.00
2023-02-16T18:41:08.294Z,100.00
2023-02-16T18:43:37.319Z,100.00
2023-02-16T18:46:08.166Z,100.00
2023-02-16T18:48:38.140Z,100.00
2023-02-16T18:51:08.419Z,100.00
2023-02-16T18:53:38.334Z,100.00
2023-02-16T18:56:10.869Z,100.00
2023-02-16T18:58:41.491Z,100.00
2023-02-16T19:01:15.657Z,100.00
2023-02-16T19:03:47.147Z,100.00
2023-02-16T19:06:16.240Z,100.00
2023-02-16T19:08:47.505Z,100.00
2023-02-16T19:11:19.185Z,100.00
2023-02-16T19:13:48.255Z,100.00
2023-02-16T19:16:18.270Z,100.00
2023-02-16T19:18:47.715Z,100.00
2023-02-16T19:21:18.687Z,100.00
2023-02-16T19:23:51.894Z,100.00
2023-02-16T19:26:26.206Z,100.00
2023-02-16T19:28:55.535Z,100.00
2023-02-16T19:31:28.671Z,100.00
2023-02-16T19:34:01.276Z,100.00
2023-02-16T19:36:32.154Z,100.00
2023-02-16T19:39:01.680Z,100.00
2023-02-16T19:41:38.703Z,100.00
2023-02-16T19:44:08.304Z,100.00
2023-02-16T19:46:37.779Z,100.00
2023-02-16T19:49:08.076Z,100.00
2023-02-16T19:51:37.254Z,100.00
2023-02-16T19:54:06.503Z,100.00
2023-02-16T19:56:40.523Z,100.00
2023-02-16T19:59:10.562Z,100.00
2023-02-16T20:01:41.798Z,100.00
2023-02-16T20:04:12.841Z,100.00
2023-02-16T20:06:42.600Z,100.00
2023-02-16T20:09:13.511Z,100.00
2023-02-16T20:11:46.801Z,100.00
2023-02-16T20:14:16.225Z,100.00
2023-02-16T20:16:46.354Z,100.00
2023-02-16T20:19:16.006Z,100.00
2023-02-16T20:21:46.580Z,100.00
2023-02-16T20:24:16.459Z,100.00
2023-02-16T20:26:51.356Z,100.00
2023-02-16T20:29:21.009Z,100.00
2023-02-16T20:31:55.683Z,100.00
2023-02-16T20:34:27.383Z,100.00
2023-02-16T20:36:56.712Z,100.00
2023-02-16T20:39:26.736Z,100.00
2023-02-16T20:42:01.220Z,100.00
2023-02-16T20:44:32.328Z,100.00
2023-02-16T20:47:01.945Z,100.00
2023-02-16T20:49:31.863Z,100.00
2023-02-16T20:52:01.656Z,100.00
2023-02-16T20:54:31.702Z,100.00
2023-02-16T20:57:02.120Z,100.00
2023-02-16T20:59:31.241Z,100.00
2023-02-16T21:02:00.309Z,100.00
2023-02-16T21:04:29.484Z,100.00
2023-02-16T21:06:58.607Z,100.00
2023-02-16T21:09:27.632Z,100.00
2023-02-16T21:11:56.983Z,100.00
2023-02-16T21:14:27.389Z,100.00
2023-02-16T21:16:56.401Z,100.00
2023-02-16T21:19:25.398Z,100.00
2023-02-16T21:21:54.435Z,100.00
2023-02-16T21:24:23.624Z,100.00
2023-02-16T21:26:52.630Z,100.00
2023-02-16T21:29:21.618Z,100.00
2023-02-16T21:31:52.114Z,100.00
2023-02-16T21:34:21.287Z,100.00
2023-02-16T21:36:50.529Z,100.00
2023-02-16T21:39:19.627Z,100.00
2023-02-16T21:41:48.827Z,100.00
2023-02-16T21:44:18.342Z,100.00
2023-02-16T21:46:48.794Z,100.00
2023-02-16T21:49:20.155Z,100.00
2023-02-16T21:51:49.840Z,100.00
2023-02-16T21:54:41.065Z,100.00
2023-02-16T21:57:09.050Z,100.00
2023-02-16T21:59:38.221Z,100.00
2023-02-16T22:02:07.181Z,100.00
2023-02-16T22:04:37.587Z,100.00
2023-02-16T22:07:06.573Z,100.00
2023-02-16T22:09:35.578Z,100.00
2023-02-16T22:12:04.684Z,100.00
2023-02-16T22:14:33.985Z,100.00
2023-02-16T22:17:04.328Z,100.00
2023-02-16T22:19:33.410Z,100.00
2023-02-16T22:22:03.836Z,100.00
2023-02-16T22:24:32.853Z,100.00
2023-02-16T22:27:01.880Z,100.00
2023-02-16T22:29:31.239Z,100.00
2023-02-16T22:32:00.291Z,100.00
2023-02-16T22:34:29.343Z,100.00
2023-02-16T22:36:58.378Z,100.00
2023-02-16T22:39:31.144Z,100.00
2023-02-16T22:42:00.400Z,100.00
2023-02-16T22:44:30.132Z,100.00
2023-02-16T22:46:59.251Z,100.00
2023-02-16T22:49:28.307Z,100.00
2023-02-16T22:51:57.620Z,100.00
2023-02-16T22:54:28.036Z,100.00
2023-02-16T22:56:57.087Z,100.00
2023-02-16T22:59:26.223Z,100.00
2023-02-16T23:01:55.197Z,100.00
2023-02-16T23:04:24.370Z,100.00
2023-02-16T23:06:53.397Z,100.00
2023-02-16T23:09:23.612Z,100.00
2023-02-16T23:11:54.041Z,100.00
2023-02-16T23:14:23.065Z,100.00
2023-02-16T23:16:54.523Z,100.00
2023-02-16T23:19:28.164Z,100.00
2023-02-16T23:21:57.223Z,100.00
2023-02-16T23:24:26.626Z,100.00
2023-02-16T23:26:57.726Z,100.00
2023-02-16T23:29:27.598Z,100.00
2023-02-16T23:31:56.673Z,100.00
2023-02-16T23:34:25.814Z,100.00
2023-02-16T23:36:54.924Z,100.00
2023-02-16T23:39:24.002Z,100.00
2023-02-16T23:41:53.062Z,100.00
2023-02-16T23:44:23.627Z,100.00
2023-02-16T23:46:52.680Z,100.00
2023-02-16T23:49:21.776Z,100.00
2023-02-16T23:51:50.856Z,100.00
2023-02-16T23:54:19.963Z,100.00
2023-02-16T23:56:50.207Z,100.00
2023-02-16T23:59:20.377Z,100.00
